Latest Weather Observations for Nullarbor

IDS60801

Issued at 7:31 am CDT Sunday 14 February 2016 (issued every 30 minutes, with the page automatically refreshed every 10 minutes)

About weather observations | Map of weather stations | Latest weather observations for SA | Other Formats
Station Details ID: 018106 Name: NULLARBOR Lat: -31.45 Lon: 130.90 Height: 64.0 m
Data from the previous 72 hours. | See also: Recent months at Nullarbor
Date/Time
CDT
Temp
°C
App
Temp
°C
Dew
Point
Rel
Hum
%
Delta-T
°C
Wind Press
QNH
hPa
Press
MSL
hPa
Rain
since 9 am
mm
Dir
 
Spd
km/h
Gust
km/h
Spd
kts
Gust
kts
14/07:30am 18.5 15.7 12.5 68 3.3 SSE 19 28 10 15 1019.1 1018.9 0.0
14/07:00am 17.6 16.5 13.1 75 2.5 SSE 11 15 6 8 1018.7 1018.5 0.0
14/06:30am 17.0 15.3 12.3 74 2.6 S 13 17 7 9 1018.5 1018.3 0.0
14/06:00am 17.9 14.9 12.6 71 3.0 SSE 20 28 11 15 1018.2 1018.0 0.0
14/05:30am 17.6 15.3 12.9 74 2.6 SSE 17 24 9 13 1017.9 1017.7 0.0
14/05:00am 17.8 15.2 13.1 74 2.6 S 19 24 10 13 1017.8 1017.6 0.0
14/04:30am 17.8 15.6 13.3 75 2.5 S 17 22 9 12 1017.7 1017.5 0.0
14/04:00am 18.2 15.8 13.7 75 2.6 S 19 24 10 13 1017.6 1017.4 0.0
14/03:30am 17.9 16.3 14.0 78 2.2 S 15 20 8 11 1017.8 1017.6 0.0
14/03:00am 17.9 15.9 14.0 78 2.2 S 17 22 9 12 1018.0 1017.8 0.0
14/02:30am 18.6 16.5 14.7 78 2.3 SSE 19 22 10 12 1018.1 1017.9 0.0
14/02:00am 18.4 16.0 14.5 78 2.3 S 20 28 11 15 1018.3 1018.1 0.0
14/01:30am 18.5 17.0 15.4 82 1.8 S 17 22 9 12 1018.5 1018.3 0.0
14/01:00am 18.7 16.9 15.4 81 1.9 S 19 26 10 14 1018.5 1018.3 0.0
14/12:30am 19.6 16.5 15.5 77 2.4 S 26 33 14 18 1018.5 1018.3 0.0
14/12:00am 19.7 16.4 16.0 79 2.2 S 28 39 15 21 1018.6 1018.4 0.0
 
Date/Time
CDT
Temp
°C
App
Temp
°C
Dew
Point
Rel
Hum
%
Delta-T
°C
Wind Press
QNH
hPa
Press
MSL
hPa
Rain
since 9 am
mm
Dir
 
Spd
km/h
Gust
km/h
Spd
kts
Gust
kts
13/11:30pm 19.8 16.7 16.6 82 1.9 S 28 37 15 20 1018.6 1018.4 0.0
13/11:00pm 19.9 18.5 17.1 84 1.7 SSE 20 26 11 14 1018.7 1018.5 0.0
13/10:30pm 19.6 17.5 17.2 86 1.5 SSE 24 33 13 18 1018.6 1018.4 0.0
13/10:00pm 19.6 18.2 16.6 83 1.8 SSE 19 24 10 13 1018.4 1018.2 0.0
13/09:30pm 19.6 18.0 16.6 83 1.8 SSE 20 28 11 15 1018.1 1017.9 0.0
13/09:00pm 19.8 17.4 16.4 81 2.0 SSE 24 32 13 17 1017.7 1017.5 0.0
13/08:30pm 20.1 16.8 16.1 78 2.4 SSE 28 39 15 21 1017.4 1017.2 0.0
13/08:00pm 20.8 17.1 16.0 74 2.9 SSE 30 39 16 21 1016.9 1016.7 0.0
13/07:30pm 21.1 17.1 16.1 73 3.0 SSE 32 44 17 24 1016.4 1016.2 0.0
13/07:00pm 21.6 16.5 15.9 70 3.4 SSE 37 50 20 27 1016.2 1016.0 0.0
13/06:30pm 21.9 16.4 15.7 68 3.7 S 39 50 21 27 1016.1 1015.9 0.0
13/06:00pm 22.8 17.5 16.4 67 3.9 S 39 48 21 26 1015.9 1015.7 0.0
13/05:30pm 23.2 18.4 16.5 66 4.1 S 37 46 20 25 1015.8 1015.6 0.0
13/05:00pm 23.4 18.8 16.0 63 4.5 S 35 46 19 25 1015.7 1015.5 0.0
13/04:30pm 23.7 19.1 16.0 62 4.7 S 35 48 19 26 1015.6 1015.4 0.0
13/04:00pm 23.5 18.5 16.1 63 4.5 S 37 48 20 26 1015.8 1015.6 0.0
13/03:30pm 23.7 18.4 16.2 63 4.6 S 39 52 21 28 1015.8 1015.6 0.0
13/03:00pm 24.8 20.1 16.8 61 4.9 S 37 50 20 27 1015.9 1015.7 0.0
13/02:30pm 24.6 20.3 16.8 62 4.8 S 35 48 19 26 1016.1 1015.9 0.0
13/02:00pm 24.3 20.0 16.8 63 4.6 S 35 44 19 24 1016.2 1016.0 0.0
13/01:30pm 25.0 21.5 17.5 63 4.7 S 32 41 17 22 1016.3 1016.1 0.0
13/01:00pm 24.5 21.2 17.0 63 4.6 S 30 37 16 20 1016.5 1016.3 0.0
13/12:30pm 23.7 20.8 17.0 66 4.1 S 28 35 15 19 1016.7 1016.5 0.0
13/12:00pm 23.7 21.4 16.7 65 4.3 S 24 33 13 18 1016.7 1016.5 0.0
13/11:30am 23.4 20.6 17.2 68 3.8 S 28 35 15 19 1016.7 1016.5 0.0
13/11:00am 23.2 21.1 17.2 69 3.7 S 24 33 13 18 1016.5 1016.3 0.0
13/10:58am 23.5 21.7 17.9 71 3.5 S 24 33 13 18 1016.5 1016.3 0.0
13/10:30am 23.1 21.7 18.0 73 3.2 S 22 32 12 17 1016.6 1016.4 0.0
13/10:19am 22.4 20.4 17.5 74 3.0 S 24 30 13 16 1016.6 1016.4 0.0
13/10:00am 21.9 20.0 17.7 77 2.6 S 24 32 13 17 1016.5 1016.3 0.0
13/09:57am 21.8 19.5 17.6 77 2.6 S 26 32 14 17 1016.5 1016.3 0.0
13/09:30am 21.0 19.6 18.0 83 1.9 S 22 28 12 15 1016.2 1016.0 0.0
13/09:00am 20.1 18.9 18.4 90 1.1 S 22 30 12 16 1016.0 1015.8 0.0
13/08:30am 19.9 20.2 19.6 98 0.2 SSW 17 22 9 12 1015.4 1015.2 0.0
13/08:03am 18.9 18.8 18.7 99 0.1 SSW 17 22 9 12 1015.0 1014.8 0.0
13/08:00am 18.8 19.0 18.6 99 0.1 SSW 15 22 8 12 1015.0 1014.8 0.0
13/07:51am 18.6 18.7 18.4 99 0.1 SSW 15 20 8 11 1014.9 1014.7 0.0
13/07:30am 18.9 18.5 18.9 100 0.0 SSW 19 22 10 12 1014.7 1014.5 0.0
13/07:00am 18.1 17.7 18.1 100 0.0 SW 17 20 9 11 1014.1 1013.8 0.0
13/06:58am 18.0 17.6 18.0 100 0.0 SW 17 20 9 11 1014.1 1013.8 0.0
13/06:30am 17.2 16.7 17.0 99 0.1 SW 15 17 8 9 1013.7 1013.4 0.0
13/06:00am 16.6 15.9 16.3 98 0.2 SW 15 17 8 9 1013.3 1013.0 0.0
13/05:30am 16.7 15.7 15.7 94 0.6 SW 15 17 8 9 1013.1 1012.8 0.0
13/05:00am 16.7 15.8 14.9 89 1.0 SW 13 15 7 8 1012.9 1012.6 0.0
13/04:30am 16.6 15.2 13.3 81 1.9 SW 13 15 7 8 1012.8 1012.5 0.0
13/04:00am 17.0 14.7 11.9 72 2.8 SW 15 19 8 10 1012.8 1012.5 0.0
13/03:30am 18.1 17.9 11.7 66 3.5 WSW 4 6 2 3 1012.5 1012.2 0.0
13/03:00am 19.1 18.4 11.9 63 4.0 NNE 7 9 4 5 1012.7 1012.4 0.0
13/02:30am 18.1 16.4 12.5 70 3.1 NNE 13 17 7 9 1012.6 1012.3 0.0
13/02:00am 18.5 16.8 12.3 67 3.5 ENE 13 13 7 7 1013.0 1012.7 0.0
13/01:30am 19.4 17.0 12.7 65 3.8 ENE 17 17 9 9 1013.1 1012.8 0.0
13/01:00am 19.2 17.8 13.4 69 3.3 E 13 15 7 8 1013.3 1013.0 0.0
13/12:30am 19.1 17.4 12.6 66 3.7 ESE 13 15 7 8 1013.5 1013.2 0.0
13/12:00am 19.5 18.0 11.8 61 4.3 E 11 13 6 7 1013.6 1013.3 0.0
 
Date/Time
CDT
Temp
°C
App
Temp
°C
Dew
Point
Rel
Hum
%
Delta-T
°C
Wind Press
QNH
hPa
Press
MSL
hPa
Rain
since 9 am
mm
Dir
 
Spd
km/h
Gust
km/h
Spd
kts
Gust
kts
12/11:30pm 20.0 17.8 10.7 55 5.1 E 13 17 7 9 1013.7 1013.4 0.0
12/11:00pm 20.3 17.7 10.7 54 5.2 ESE 15 17 8 9 1013.7 1013.4 0.0
12/10:30pm 20.7 18.6 11.1 54 5.3 ESE 13 15 7 8 1013.6 1013.3 0.0
12/10:00pm 21.0 18.9 11.1 53 5.5 ESE 13 15 7 8 1013.6 1013.3 0.0
12/09:30pm 21.6 19.4 10.7 50 6.0 SE 13 15 7 8 1013.6 1013.3 0.0
12/09:00pm 22.9 20.4 9.7 43 7.2 SE 13 15 7 8 1013.3 1013.0 0.0
12/08:30pm 24.8 21.7 8.7 36 8.7 ESE 15 20 8 11 1013.1 1012.8 0.0
12/08:00pm 26.5 22.5 6.5 28 10.5 ESE 17 22 9 12 1012.9 1012.6 0.0
12/07:30pm 27.6 22.4 3.3 21 12.1 SE 20 26 11 14 1013.0 1012.7 0.0
12/07:00pm 28.6 23.0 3.5 20 12.6 SE 22 28 12 15 1012.9 1012.6 0.0
12/06:30pm 28.2 22.0 4.5 22 12.1 SSE 26 30 14 16 1012.8 1012.5 0.0
12/06:00pm 28.7 22.2 4.9 22 12.3 SSE 28 35 15 19 1012.9 1012.6 0.0
12/05:30pm 28.7 21.9 4.9 22 12.3 SSE 30 35 16 19 1013.0 1012.7 0.0
12/05:00pm 29.1 23.5 8.7 28 11.3 SSE 28 33 15 18 1013.0 1012.7 0.0
12/04:30pm 29.6 24.7 11.2 32 10.6 S 28 33 15 18 1013.2 1012.9 0.0
12/04:00pm 31.0 26.9 11.4 30 11.4 SSE 24 30 13 16 1013.3 1013.0 0.0
12/03:30pm 30.7 26.9 11.1 30 11.3 SSE 22 30 12 16 1013.5 1013.2 0.0
12/03:00pm 31.7 28.3 12.5 31 11.4 SSE 22 32 12 17 1013.8 1013.5 0.0
12/02:30pm 33.5 30.7 3.3 15 15.6 W 7 15 4 8 1014.0 1013.7 0.0
12/02:00pm 32.0 28.4 3.1 16 14.8 N 11 19 6 10 1013.8 1013.5 0.0
12/01:30pm 30.7 28.2 6.6 22 13.0 N 9 19 5 10 1014.3 1014.0 0.0
12/01:00pm 29.5 26.5 6.2 23 12.4 NE 11 17 6 9 1014.9 1014.7 0.0
12/12:30pm 28.0 24.9 8.8 30 10.6 NNE 15 24 8 13 1015.0 1014.8 0.0
12/12:00pm 25.9 22.7 10.1 37 8.8 NNE 17 22 9 12 1015.6 1015.4 0.0
12/11:30am 23.4 21.6 12.1 49 6.4 NNE 13 19 7 10 1016.0 1015.8 0.0
12/11:00am 21.0 20.2 13.9 64 4.1 NNE 11 17 6 9 1016.4 1016.2 0.0
12/10:30am 19.4 18.6 15.1 76 2.5 NNE 13 19 7 10 1016.6 1016.4 0.0
12/10:19am 18.6 18.4 15.7 83 1.7 NNE 11 17 6 9 1016.7 1016.5 0.0
12/10:00am 17.0 16.9 17.0 100 0.0 NE 13 17 7 9 1016.8 1016.6 0.0
12/09:59am 17.0 16.9 17.0 100 0.0 NE 13 17 7 9 1016.9 1016.7 0.0
12/09:30am 15.6 15.7 15.6 100 0.0 NNE 9 13 5 7 1017.0 1016.8 0.0
12/09:00am 15.4 15.5 15.4 100 0.0 NE 9 11 5 6 1017.2 1017.0 0.0
12/08:30am 15.3 15.3 15.3 100 0.0 NE 9 13 5 7 1017.0 1016.8 0.0
12/08:00am 14.9 16.5 14.9 100 0.0 CALM 0 6 0 3 1016.8 1016.6 0.0
12/07:30am 15.2 15.2 15.2 100 0.0 ENE 9 11 5 6 1016.2 1016.0 0.0
12/07:00am 15.5 14.8 15.3 99 0.1 ENE 13 15 7 8 1015.9 1015.7 0.0
12/06:52am 15.5 14.8 15.3 99 0.1 ENE 13 15 7 8 1015.8 1015.6 0.0
12/06:30am 15.9 15.7 15.7 99 0.1 ENE 11 15 6 8 1015.7 1015.5 0.0
12/06:00am 16.2 15.4 16.0 99 0.1 E 15 20 8 11 1015.5 1015.3 0.0
12/05:30am 16.4 16.0 16.2 99 0.1 E 13 17 7 9 1015.5 1015.3 0.0
12/05:00am 16.3 16.2 16.1 99 0.1 E 11 13 6 7 1015.4 1015.2 0.0
12/04:30am 16.1 16.7 15.9 99 0.1 E 7 9 4 5 1015.8 1015.6 0.0
12/04:00am 15.2 15.5 15.0 99 0.1 NE 7 9 4 5 1016.0 1015.8 0.0
12/03:53am 14.9 15.1 14.7 99 0.1 ENE 7 9 4 5 1016.0 1015.8 0.0
12/03:51am 14.9 15.1 14.7 99 0.1 ENE 7 9 4 5 1016.0 1015.8 0.0
12/03:32am 15.1 14.9 14.6 97 0.3 SE 9 9 5 5 1016.2 1016.0 0.0
12/03:30am 15.1 14.9 14.6 97 0.3 SE 9 11 5 6 1016.2 1016.0 0.0
12/03:00am 15.6 15.4 14.8 95 0.5 SE 9 11 5 6 1016.5 1016.3 0.0
12/02:30am 16.4 16.0 15.1 92 0.8 ESE 11 15 6 8 1016.8 1016.6 0.0
12/02:22am 16.6 15.9 15.3 92 0.8 ESE 13 19 7 10 1016.9 1016.7 0.0
12/02:00am 17.3 16.3 15.6 90 1.0 ESE 15 20 8 11 1017.3 1017.1 0.0
12/01:30am 17.6 16.0 15.9 90 1.0 ESE 19 24 10 13 1017.7 1017.5 0.0
12/01:00am 17.4 16.4 16.6 95 0.5 SE 17 24 9 13 1017.9 1017.7 0.0
12/12:37am 16.8 16.0 16.2 96 0.4 SE 15 20 8 11 1018.1 1017.9 0.0
12/12:30am 16.6 15.7 15.8 95 0.5 SE 15 19 8 10 1018.1 1017.9 0.0
12/12:00am 16.7 16.1 15.7 94 0.6 SE 13 17 7 9 1018.3 1018.1 0.0
 
Date/Time
CDT
Temp
°C
App
Temp
°C
Dew
Point
Rel
Hum
%
Delta-T
°C
Wind Press
QNH
hPa
Press
MSL
hPa
Rain
since 9 am
mm
Dir
 
Spd
km/h
Gust
km/h
Spd
kts
Gust
kts
11/11:30pm 17.0 15.6 15.5 91 0.9 SE 17 19 9 10 1018.5 1018.3 0.0
11/11:00pm 17.3 15.9 15.6 90 1.0 SE 17 22 9 12 1018.7 1018.5 0.0
11/10:30pm 17.7 16.0 15.7 88 1.2 SE 19 22 10 12 1018.6 1018.4 0.0
11/10:00pm 17.9 16.6 15.7 87 1.3 SE 17 22 9 12 1018.4 1018.2 0.0
11/09:30pm 18.2 16.2 15.6 85 1.5 SE 20 28 11 15 1018.1 1017.9 0.0
11/09:00pm 18.7 16.0 15.6 82 1.8 SE 24 30 13 16 1017.8 1017.6 0.0
11/08:30pm 19.2 15.4 15.7 80 2.1 SE 30 37 16 20 1017.5 1017.3 0.0
11/08:00pm 19.9 15.4 15.5 76 2.6 SSE 33 41 18 22 1017.1 1016.9 0.0
11/07:30pm 20.5 16.0 15.5 73 3.0 SSE 33 41 18 22 1017.0 1016.8 0.0
11/07:00pm 21.2 16.9 15.5 70 3.4 SSE 32 43 17 23 1016.8 1016.6 0.0
11/06:30pm 21.5 17.0 15.3 68 3.7 SSE 33 43 18 23 1016.7 1016.5 0.0
11/06:00pm 21.7 16.7 15.1 66 3.9 S 35 41 19 22 1016.7 1016.5 0.0
11/05:30pm 22.3 17.8 15.4 65 4.1 SSE 33 41 18 22 1016.7 1016.5 0.0
11/05:00pm 23.0 18.7 15.3 62 4.6 SSE 32 39 17 21 1016.7 1016.5 0.0
11/04:30pm 23.1 19.0 14.9 60 4.9 SSE 30 39 16 21 1016.6 1016.4 0.0
11/04:00pm 23.0 19.5 14.6 59 5.0 SSE 26 33 14 18 1016.6 1016.4 0.0
11/03:30pm 23.2 19.7 14.5 58 5.1 SSE 26 33 14 18 1016.7 1016.5 0.0
11/03:00pm 23.9 21.0 15.1 58 5.3 SSE 24 33 13 18 1016.9 1016.7 0.0
11/02:30pm 23.4 20.4 14.7 58 5.2 SSE 24 35 13 19 1017.2 1017.0 0.0
11/02:00pm 23.3 20.1 14.3 57 5.3 SE 24 32 13 17 1017.3 1017.1 0.0
11/01:30pm 22.6 19.0 14.2 59 4.9 SSE 26 33 14 18 1017.7 1017.5 0.0
11/01:00pm 23.4 20.4 14.7 58 5.2 SE 24 35 13 19 1017.8 1017.6 0.0
11/12:30pm 22.9 20.2 14.5 59 5.0 SE 22 28 12 15 1018.0 1017.8 0.0
11/12:00pm 22.0 18.7 14.1 61 4.6 SSE 24 33 13 18 1018.1 1017.9 0.0
11/11:30am 21.9 19.6 14.0 61 4.6 SE 19 28 10 15 1018.3 1018.1 0.0
11/11:00am 21.7 19.3 14.4 63 4.3 SE 20 26 11 14 1018.5 1018.3 0.0
11/10:30am 20.9 18.5 14.3 66 3.8 SE 20 26 11 14 1018.7 1018.5 0.0
11/10:00am 20.0 17.6 14.4 70 3.3 ESE 20 28 11 15 1019.0 1018.8 0.0
11/09:30am 19.7 17.5 14.5 72 3.0 SSE 19 28 10 15 1018.7 1018.5 0.0
11/09:00am 19.0 16.9 15.1 78 2.3 SE 20 26 11 14 1018.7 1018.5 0.0
11/08:54am 18.8 16.5 14.7 77 2.4 SE 20 28 11 15 1018.6 1018.4 0.0
11/08:30am 17.9 16.7 15.0 83 1.7 SE 15 24 8 13 1018.4 1018.2 0.0
11/08:00am 16.7 16.7 15.1 90 0.9 SSE 9 13 5 7 1018.3 1018.1 0.0
11/07:54am 16.6 16.1 15.0 90 0.9 SSE 11 19 6 10 1018.2 1018.0 0.0
11/07:51am 16.5 16.0 15.0 91 0.9 SE 11 19 6 10 1018.2 1018.0 0.0
11/07:36am 16.0 15.7 14.4 90 0.9 SSE 9 11 5 6 1018.0 1017.8 0.0

Other Formats:

Comma delimited format used in spreadsheet applications
http://www.bom.gov.au/fwo/IDS60801/IDS60801.94651.axf

JavaScript Object Notation format (JSON) in row-major order
http://www.bom.gov.au/fwo/IDS60801/IDS60801.94651.json